createdAt,value
2018-11-01T00:00:50.873Z,100145.00
2018-11-01T00:03:19.165Z,100140.00
2018-11-01T00:05:47.227Z,100137.00
2018-11-01T00:08:15.390Z,100127.00
2018-11-01T00:10:44.301Z,100139.00
2018-11-01T00:13:12.456Z,100144.00
2018-11-01T00:15:40.844Z,100142.00
2018-11-01T00:18:08.990Z,100139.00
2018-11-01T00:20:37.075Z,100133.00
2018-11-01T00:23:05.683Z,100125.00
2018-11-01T00:25:33.904Z,100117.00
2018-11-01T00:28:02.119Z,100123.00
2018-11-01T00:30:30.209Z,100117.00
2018-11-01T00:32:58.377Z,100113.00
2018-11-01T00:35:26.445Z,100113.00
2018-11-01T00:37:54.746Z,100121.00
2018-11-01T00:40:22.877Z,100119.00
2018-11-01T00:42:51.010Z,100127.00
2018-11-01T00:45:19.247Z,100131.00
2018-11-01T00:47:47.419Z,100129.00
2018-11-01T00:50:15.492Z,100131.00
2018-11-01T00:52:43.963Z,100141.00
2018-11-01T00:55:12.942Z,100150.00
2018-11-01T00:57:41.731Z,100146.00
2018-11-01T01:00:12.770Z,100140.00
2018-11-01T01:02:40.969Z,100136.00
2018-11-01T01:05:10.543Z,100139.00
2018-11-01T01:07:38.701Z,100138.00
2018-11-01T01:10:13.009Z,100130.00
2018-11-01T01:12:42.329Z,100121.00
2018-11-01T01:15:10.460Z,100128.00
2018-11-01T01:17:39.097Z,100133.00
2018-11-01T01:20:10.745Z,100124.00
2018-11-01T01:22:39.543Z,100123.00
2018-11-01T01:25:09.757Z,100126.00
2018-11-01T01:27:38.011Z,100134.00
2018-11-01T01:30:09.350Z,100117.00
2018-11-01T01:32:37.494Z,100126.00
2018-11-01T01:35:06.638Z,100113.00
2018-11-01T01:37:34.855Z,100121.00
2018-11-01T01:40:03.098Z,100123.00
2018-11-01T01:42:35.157Z,100125.00
2018-11-01T01:45:04.802Z,100123.00
2018-11-01T01:47:33.441Z,100131.00
2018-11-01T01:50:01.573Z,100135.00
2018-11-01T01:52:29.648Z,100133.00
2018-11-01T01:54:58.192Z,100119.00
2018-11-01T01:57:26.357Z,100118.00
2018-11-01T01:59:54.474Z,100105.00
2018-11-01T02:02:22.541Z,100100.00
2018-11-01T02:04:50.684Z,100095.00
2018-11-01T02:07:18.857Z,100097.00
2018-11-01T02:09:46.986Z,100093.00
2018-11-01T02:12:15.099Z,100086.00
2018-11-01T02:14:43.208Z,100075.00
2018-11-01T02:17:11.365Z,100075.00
2018-11-01T02:19:39.428Z,100078.00
2018-11-01T02:22:07.630Z,100073.00
2018-11-01T02:24:35.723Z,100060.00
2018-11-01T02:27:04.169Z,100054.00
2018-11-01T02:29:32.353Z,100057.00
2018-11-01T02:32:00.431Z,100062.00
2018-11-01T02:34:28.666Z,100059.00
2018-11-01T02:36:56.808Z,100060.00
2018-11-01T02:39:24.870Z,100070.00
2018-11-01T02:41:53.253Z,100077.00
2018-11-01T02:44:21.413Z,100076.00
2018-11-01T02:46:49.684Z,100077.00
2018-11-01T02:49:17.780Z,100069.00
2018-11-01T02:51:45.881Z,100053.00
2018-11-01T02:54:14.056Z,100055.00
2018-11-01T02:56:42.292Z,100051.00
2018-11-01T02:59:10.436Z,100052.00
2018-11-01T03:01:38.584Z,100047.00
2018-11-01T03:04:06.741Z,100047.00
2018-11-01T03:06:34.949Z,100042.00
2018-11-01T03:09:03.973Z,100040.00
2018-11-01T03:11:32.097Z,100038.00
2018-11-01T03:14:00.230Z,100030.00
2018-11-01T03:16:28.344Z,100016.00
2018-11-01T03:18:56.464Z,100029.00
2018-11-01T03:21:24.625Z,100031.00
2018-11-01T03:23:52.673Z,100029.00
2018-11-01T03:26:20.696Z,100020.00
2018-11-01T03:28:48.859Z,100021.00
2018-11-01T03:31:16.944Z,100009.00
2018-11-01T03:33:45.001Z,100014.00
2018-11-01T03:36:13.098Z,100015.00
2018-11-01T03:38:41.187Z,100005.00
2018-11-01T03:41:09.277Z,100013.00
2018-11-01T03:43:37.494Z,100013.00
2018-11-01T03:46:06.136Z,100020.00
2018-11-01T03:48:34.192Z,100023.00
2018-11-01T03:51:02.237Z,100014.00
2018-11-01T03:53:30.407Z,100005.00
2018-11-01T03:55:58.434Z,99995.00
2018-11-01T03:58:26.502Z,100001.00
2018-11-01T04:00:54.628Z,99991.00
2018-11-01T04:03:22.924Z,100006.00
2018-11-01T04:05:51.090Z,100000.00
2018-11-01T04:08:19.608Z,100004.00
2018-11-01T04:10:47.744Z,100002.00
2018-11-01T04:13:15.845Z,100002.00
2018-11-01T04:15:43.945Z,100004.00
2018-11-01T04:18:12.033Z,100005.00
2018-11-01T04:20:40.140Z,99996.00
2018-11-01T04:23:08.279Z,99995.00
2018-11-01T04:25:36.338Z,99996.00
2018-11-01T04:28:04.780Z,99989.00
2018-11-01T04:30:32.967Z,99988.00
2018-11-01T04:33:01.162Z,99991.00
2018-11-01T04:35:29.295Z,100008.00
2018-11-01T04:37:57.484Z,100005.00
2018-11-01T04:40:25.634Z,99997.00
2018-11-01T04:42:53.704Z,99992.00
2018-11-01T04:45:21.879Z,100010.00
2018-11-01T04:47:50.069Z,99971.00
2018-11-01T04:50:18.039Z,99984.00
2018-11-01T04:52:46.070Z,99982.00
2018-11-01T04:55:14.231Z,100002.00
2018-11-01T04:57:42.304Z,100000.00
2018-11-01T05:00:12.387Z,99989.00
2018-11-01T05:02:40.934Z,99989.00
2018-11-01T05:05:09.090Z,99973.00
2018-11-01T05:07:37.664Z,99958.00
2018-11-01T05:10:08.090Z,99968.00
2018-11-01T05:12:36.585Z,99968.00
2018-11-01T05:15:05.257Z,99962.00
2018-11-01T05:17:33.455Z,99963.00
2018-11-01T05:20:01.550Z,99964.00
2018-11-01T05:22:29.616Z,99953.00
2018-11-01T05:24:57.724Z,99946.00
2018-11-01T05:27:26.025Z,99961.00
2018-11-01T05:29:54.158Z,99971.00
2018-11-01T05:32:22.300Z,99962.00
2018-11-01T05:34:50.527Z,99962.00
2018-11-01T05:37:18.663Z,99967.00
2018-11-01T05:39:46.777Z,99976.00
2018-11-01T05:42:14.879Z,99968.00
2018-11-01T05:44:43.042Z,99968.00
2018-11-01T05:47:11.162Z,99971.00
2018-11-01T05:49:39.278Z,99976.00
2018-11-01T05:52:07.477Z,99982.00
2018-11-01T05:54:35.615Z,99982.00
2018-11-01T05:57:04.011Z,99986.00
2018-11-01T05:59:32.194Z,99976.00
2018-11-01T06:02:02.921Z,99982.00
2018-11-01T06:04:31.276Z,99989.00
2018-11-01T06:07:00.461Z,99995.00
2018-11-01T06:09:30.014Z,99996.00
2018-11-01T06:11:58.343Z,99981.00
2018-11-01T06:14:27.011Z,99976.00
2018-11-01T06:16:55.536Z,99981.00
2018-11-01T06:19:23.699Z,99973.00
2018-11-01T06:21:51.772Z,99971.00
2018-11-01T06:24:19.920Z,99968.00
2018-11-01T06:26:48.036Z,99956.00
2018-11-01T06:29:16.155Z,99956.00
2018-11-01T06:31:44.306Z,99953.00
2018-11-01T06:34:20.169Z,99950.00
2018-11-01T06:36:48.439Z,99958.00
2018-11-01T06:39:19.922Z,99958.00
2018-11-01T06:41:49.704Z,99962.00
2018-11-01T06:44:17.952Z,99966.00
2018-11-01T06:46:46.505Z,99968.00
2018-11-01T06:49:15.266Z,99957.00
2018-11-01T06:51:43.388Z,99961.00
2018-11-01T06:54:11.965Z,99965.00
2018-11-01T06:56:40.165Z,99968.00
2018-11-01T06:59:08.449Z,99969.00
2018-11-01T07:01:36.659Z,99965.00
2018-11-01T07:04:05.019Z,99963.00
2018-11-01T07:06:34.256Z,99979.00
2018-11-01T07:09:02.700Z,99966.00
2018-11-01T07:11:30.960Z,99971.00
2018-11-01T07:13:59.028Z,99958.00
2018-11-01T07:16:27.115Z,99968.00
2018-11-01T07:18:55.250Z,99969.00
2018-11-01T07:21:23.386Z,99961.00
2018-11-01T07:23:51.471Z,99959.00
2018-11-01T07:26:19.846Z,99945.00
2018-11-01T07:28:47.942Z,99948.00
2018-11-01T07:31:16.036Z,99943.00
2018-11-01T07:33:44.267Z,99950.00
2018-11-01T07:36:12.379Z,99953.00
2018-11-01T07:38:40.478Z,99939.00
2018-11-01T07:41:08.775Z,99941.00
2018-11-01T07:43:37.235Z,99941.00
2018-11-01T07:46:05.428Z,99937.00
2018-11-01T07:48:33.739Z,99935.00
2018-11-01T07:51:01.791Z,99943.00
2018-11-01T07:53:29.948Z,99927.00
2018-11-01T07:55:58.163Z,99933.00
2018-11-01T07:58:26.408Z,99931.00
2018-11-01T08:00:54.588Z,99935.00
2018-11-01T08:03:22.745Z,99931.00
2018-11-01T08:05:50.963Z,99930.00
2018-11-01T08:08:19.076Z,99935.00
2018-11-01T08:10:47.167Z,99923.00
2018-11-01T08:13:15.308Z,99934.00
2018-11-01T08:15:43.408Z,99939.00
2018-11-01T08:18:11.468Z,99933.00
2018-11-01T08:20:39.795Z,99931.00
2018-11-01T08:23:08.055Z,99927.00
2018-11-01T08:25:36.207Z,99924.00
2018-11-01T08:28:04.679Z,99920.00
2018-11-01T08:30:32.777Z,99926.00
2018-11-01T08:33:00.954Z,99918.00
2018-11-01T08:35:29.036Z,99918.00
2018-11-01T08:37:57.184Z,99933.00
2018-11-01T08:40:25.362Z,99939.00
2018-11-01T08:42:53.547Z,99936.00
2018-11-01T08:45:21.678Z,99938.00
2018-11-01T08:47:49.818Z,99938.00
2018-11-01T08:50:17.942Z,99938.00
2018-11-01T08:52:46.133Z,99940.00
2018-11-01T08:55:14.710Z,99930.00
2018-11-01T08:57:44.085Z,99924.00
2018-11-01T09:00:12.879Z,99921.00
2018-11-01T09:02:42.012Z,99926.00
2018-11-01T09:05:11.167Z,99923.00
2018-11-01T09:07:40.017Z,99920.00
2018-11-01T09:10:11.809Z,99926.00
2018-11-01T09:12:40.275Z,99936.00
2018-11-01T09:15:11.832Z,99929.00
2018-11-01T09:17:40.379Z,99926.00
2018-11-01T09:20:09.373Z,99948.00
2018-11-01T09:22:37.752Z,99942.00
2018-11-01T09:25:06.427Z,99950.00
2018-11-01T09:27:34.825Z,99950.00
2018-11-01T09:30:04.133Z,99957.00
2018-11-01T09:32:32.268Z,99974.00
2018-11-01T09:35:00.507Z,99963.00
2018-11-01T09:37:28.667Z,99944.00
2018-11-01T09:39:56.800Z,99969.00
2018-11-01T09:42:24.989Z,99964.00
2018-11-01T09:44:53.087Z,99969.00
2018-11-01T09:47:21.492Z,99967.00
2018-11-01T09:49:49.504Z,99971.00
2018-11-01T09:52:17.705Z,99973.00
2018-11-01T09:54:46.627Z,99966.00
2018-11-01T09:57:14.939Z,99978.00
2018-11-01T09:59:43.197Z,99962.00
2018-11-01T10:02:12.487Z,99979.00
2018-11-01T10:04:40.791Z,99986.00
2018-11-01T10:07:09.124Z,99994.00
2018-11-01T10:09:37.407Z,100003.00
2018-11-01T10:12:05.867Z,100013.00
2018-11-01T10:14:34.000Z,100013.00
2018-11-01T10:17:02.709Z,100017.00
2018-11-01T10:19:30.547Z,100015.00
2018-11-01T10:21:58.679Z,99993.00
2018-11-01T10:24:26.857Z,100000.00
2018-11-01T10:26:55.200Z,99985.00
2018-11-01T10:29:23.359Z,99978.00
2018-11-01T10:31:51.761Z,99988.00
2018-11-01T10:34:19.813Z,99972.00
2018-11-01T10:36:47.893Z,99984.00
2018-11-01T10:39:16.074Z,99981.00
2018-11-01T10:41:44.601Z,99977.00
2018-11-01T10:44:12.828Z,99980.00
2018-11-01T10:46:41.670Z,99968.00
2018-11-01T10:49:09.890Z,99973.00
2018-11-01T10:51:38.182Z,99960.00
2018-11-01T10:54:06.589Z,99969.00
2018-11-01T10:56:34.846Z,99950.00
2018-11-01T10:59:03.205Z,99949.00
2018-11-01T11:01:36.034Z,99952.00
2018-11-01T11:04:05.198Z,99950.00
2018-11-01T11:06:33.288Z,99959.00
2018-11-01T11:09:01.614Z,99955.00
2018-11-01T11:11:30.214Z,99953.00
2018-11-01T11:13:58.478Z,99925.00
2018-11-01T11:16:26.644Z,99913.00
2018-11-01T11:18:54.936Z,99897.00
2018-11-01T11:21:23.112Z,99892.00
2018-11-01T11:23:51.217Z,99878.00
2018-11-01T11:26:19.542Z,99878.00
2018-11-01T11:28:47.660Z,99889.00
2018-11-01T11:31:15.714Z,99884.00
2018-11-01T11:33:43.887Z,99886.00
2018-11-01T11:36:18.613Z,99877.00
2018-11-01T11:38:46.805Z,99885.00
2018-11-01T11:41:14.940Z,99893.00
2018-11-01T11:43:43.192Z,99903.00
2018-11-01T11:46:11.692Z,99910.00
2018-11-01T11:48:39.960Z,99903.00
2018-11-01T11:51:08.080Z,99892.00
2018-11-01T11:53:36.230Z,99880.00
2018-11-01T11:56:04.642Z,99870.00
2018-11-01T11:58:32.766Z,99859.00
2018-11-01T12:01:01.034Z,99847.00
2018-11-01T12:03:29.164Z,99836.00
2018-11-01T12:05:57.416Z,99833.00
2018-11-01T12:08:25.404Z,99835.00
2018-11-01T12:10:53.550Z,99865.00
2018-11-01T12:13:21.633Z,99871.00
2018-11-01T12:15:49.745Z,99889.00
2018-11-01T12:18:17.879Z,99906.00
2018-11-01T12:20:45.993Z,99917.00
2018-11-01T12:23:14.136Z,99922.00
2018-11-01T12:25:42.290Z,99920.00
2018-11-01T12:28:10.434Z,99925.00
2018-11-01T12:30:38.855Z,99929.00
2018-11-01T12:33:07.027Z,99916.00
2018-11-01T12:35:35.713Z,99905.00
2018-11-01T12:38:04.016Z,99906.00
2018-11-01T12:40:32.389Z,99929.00
2018-11-01T12:43:00.646Z,99929.00
2018-11-01T12:45:28.836Z,99935.00
2018-11-01T12:50:39.608Z,99955.00
2018-11-01T12:53:07.691Z,99949.00
2018-11-01T12:55:35.819Z,99959.00
2018-11-01T12:58:04.233Z,99968.00
2018-11-01T13:00:32.560Z,99986.00
2018-11-01T13:03:00.785Z,99989.00
2018-11-01T13:05:29.012Z,99974.00
2018-11-01T13:07:57.101Z,99981.00
2018-11-01T13:10:25.389Z,99985.00
2018-11-01T13:12:53.704Z,99996.00
2018-11-01T13:15:21.923Z,100007.00
2018-11-01T13:17:50.668Z,100003.00
2018-11-01T13:20:18.787Z,100001.00
2018-11-01T13:22:46.956Z,100011.00
2018-11-01T13:25:15.190Z,100001.00
2018-11-01T13:27:43.492Z,100017.00
2018-11-01T13:30:14.072Z,100016.00
2018-11-01T13:32:43.406Z,100004.00
2018-11-01T13:35:11.774Z,100007.00
2018-11-01T13:37:39.843Z,100004.00
2018-11-01T13:40:08.787Z,100001.00
2018-11-01T13:42:36.805Z,99992.00
2018-11-01T13:45:05.648Z,100007.00
2018-11-01T13:47:34.096Z,100005.00
2018-11-01T13:50:02.114Z,100012.00
2018-11-01T13:52:30.732Z,100003.00
2018-11-01T13:54:58.886Z,100002.00
2018-11-01T13:57:26.998Z,100010.00
2018-11-01T13:59:55.206Z,100010.00
2018-11-01T14:02:23.433Z,100018.00
2018-11-01T14:04:51.500Z,100019.00
2018-11-01T14:07:19.789Z,100014.00
2018-11-01T14:09:48.004Z,100026.00
2018-11-01T14:12:16.537Z,100022.00
2018-11-01T14:14:45.331Z,100026.00
2018-11-01T14:17:13.184Z,100024.00
2018-11-01T14:19:41.408Z,100029.00
2018-11-01T14:22:09.581Z,100025.00
2018-11-01T14:24:37.690Z,100011.00
2018-11-01T14:27:06.029Z,100022.00
2018-11-01T14:29:34.151Z,100030.00
2018-11-01T14:32:02.471Z,100029.00
2018-11-01T14:34:30.680Z,100017.00
2018-11-01T14:36:58.998Z,100036.00
2018-11-01T14:39:27.125Z,100027.00
2018-11-01T14:41:55.290Z,100028.00
2018-11-01T14:44:23.480Z,100029.00
2018-11-01T14:46:51.596Z,100025.00
2018-11-01T14:49:19.780Z,100023.00
2018-11-01T14:51:48.012Z,100021.00
2018-11-01T14:54:16.754Z,100046.00
2018-11-01T14:56:45.781Z,100047.00
2018-11-01T14:59:13.769Z,100049.00
2018-11-01T15:01:40.679Z,100041.00
2018-11-01T15:04:08.875Z,100044.00
2018-11-01T15:06:37.098Z,100040.00
2018-11-01T15:09:09.282Z,100025.00
2018-11-01T15:11:37.590Z,99997.00
2018-11-01T15:14:05.745Z,100002.00
2018-11-01T15:16:34.027Z,100026.00
2018-11-01T15:19:02.346Z,100031.00
2018-11-01T15:21:30.517Z,100028.00
2018-11-01T15:23:58.684Z,100035.00
2018-11-01T15:26:26.984Z,100029.00
2018-11-01T15:28:55.226Z,100018.00
2018-11-01T15:31:23.577Z,100033.00
2018-11-01T15:33:51.826Z,100017.00
2018-11-01T15:36:20.054Z,100020.00
2018-11-01T15:38:48.321Z,100020.00
2018-11-01T15:41:16.584Z,100022.00
2018-11-01T15:43:44.877Z,100015.00
2018-11-01T15:46:13.098Z,100024.00
2018-11-01T15:48:41.495Z,100020.00
2018-11-01T15:51:10.980Z,100025.00
2018-11-01T15:53:39.149Z,100018.00
2018-11-01T15:56:07.657Z,100028.00
2018-11-01T15:58:35.928Z,100028.00
2018-11-01T16:01:04.780Z,100033.00
2018-11-01T16:03:33.114Z,100036.00
2018-11-01T16:06:01.286Z,100049.00
2018-11-01T16:08:29.453Z,100044.00
2018-11-01T16:10:57.639Z,100028.00
2018-11-01T16:13:25.977Z,100034.00
2018-11-01T16:15:54.246Z,100042.00
2018-11-01T16:18:22.569Z,100054.00
2018-11-01T16:20:50.724Z,100052.00
2018-11-01T16:23:19.171Z,100054.00
2018-11-01T16:25:48.957Z,100049.00
2018-11-01T16:28:17.424Z,100046.00
2018-11-01T16:30:45.715Z,100054.00
2018-11-01T16:33:14.095Z,100062.00
2018-11-01T16:35:42.418Z,100060.00
2018-11-01T16:38:10.761Z,100050.00
2018-11-01T16:40:39.038Z,100052.00
2018-11-01T16:43:07.377Z,100056.00
2018-11-01T16:45:35.614Z,100064.00
2018-11-01T16:48:04.095Z,100068.00
2018-11-01T16:50:32.460Z,100069.00
2018-11-01T16:53:00.792Z,100067.00
2018-11-01T16:55:29.089Z,100062.00
2018-11-01T16:57:57.262Z,100051.00
2018-11-01T17:00:25.674Z,100059.00
2018-11-01T17:02:53.887Z,100065.00
2018-11-01T17:05:22.153Z,100063.00
2018-11-01T17:07:50.512Z,100070.00
2018-11-01T17:10:19.302Z,100075.00
2018-11-01T17:12:47.920Z,100085.00
2018-11-01T17:15:16.329Z,100097.00
2018-11-01T17:17:45.661Z,100107.00
2018-11-01T17:20:14.142Z,100105.00
2018-11-01T17:22:42.534Z,100111.00
2018-11-01T17:25:10.902Z,100121.00
2018-11-01T17:27:39.277Z,100128.00
2018-11-01T17:30:08.859Z,100129.00
2018-11-01T17:32:41.773Z,100137.00
2018-11-01T17:35:10.167Z,100137.00
2018-11-01T17:37:38.581Z,100135.00
2018-11-01T17:40:08.165Z,100132.00
2018-11-01T17:42:36.616Z,100139.00
2018-11-01T17:45:06.316Z,100148.00
2018-11-01T17:47:34.897Z,100139.00
2018-11-01T17:50:04.385Z,100146.00
2018-11-01T17:52:32.709Z,100156.00
2018-11-01T17:55:01.030Z,100163.00
2018-11-01T17:57:29.493Z,100178.00
2018-11-01T17:59:57.875Z,100173.00
2018-11-01T18:02:26.349Z,100167.00
2018-11-01T18:04:54.706Z,100167.00
2018-11-01T18:07:23.127Z,100166.00
2018-11-01T18:09:51.643Z,100175.00
2018-11-01T18:12:19.930Z,100171.00
2018-11-01T18:14:48.269Z,100172.00
2018-11-01T18:17:16.589Z,100162.00
2018-11-01T18:19:44.987Z,100165.00
2018-11-01T18:22:13.360Z,100165.00
2018-11-01T18:24:41.633Z,100168.00
2018-11-01T18:27:10.536Z,100169.00
2018-11-01T18:29:38.913Z,100172.00
2018-11-01T18:32:07.371Z,100179.00
2018-11-01T18:34:35.578Z,100183.00
2018-11-01T18:37:03.889Z,100194.00
2018-11-01T18:39:32.317Z,100200.00
2018-11-01T18:42:00.663Z,100209.00
2018-11-01T18:44:29.072Z,100207.00
2018-11-01T18:46:57.427Z,100204.00
2018-11-01T18:49:25.785Z,100205.00
2018-11-01T18:51:54.197Z,100214.00
2018-11-01T18:54:22.598Z,100222.00
2018-11-01T18:56:51.019Z,100216.00
2018-11-01T18:59:19.283Z,100207.00
2018-11-01T19:01:47.625Z,100215.00
2018-11-01T19:04:16.222Z,100212.00
2018-11-01T19:06:44.629Z,100232.00
2018-11-01T19:09:13.130Z,100240.00
2018-11-01T19:11:41.684Z,100231.00
2018-11-01T19:14:10.534Z,100236.00
2018-11-01T19:16:38.815Z,100230.00
2018-11-01T19:19:07.289Z,100231.00
2018-11-01T19:21:35.841Z,100223.00
2018-11-01T19:24:04.439Z,100235.00
2018-11-01T19:26:32.715Z,100252.00
2018-11-01T19:29:01.099Z,100254.00
2018-11-01T19:31:29.495Z,100252.00
2018-11-01T19:33:57.977Z,100248.00
2018-11-01T19:36:26.291Z,100250.00
2018-11-01T19:38:54.691Z,100246.00
2018-11-01T19:41:23.188Z,100242.00
2018-11-01T19:43:51.428Z,100241.00
2018-11-01T19:46:19.862Z,100244.00
2018-11-01T19:48:48.221Z,100249.00
2018-11-01T19:51:16.644Z,100258.00
2018-11-01T19:53:45.218Z,100260.00
2018-11-01T19:56:13.864Z,100259.00
2018-11-01T19:58:42.159Z,100271.00
2018-11-01T20:01:10.662Z,100278.00
2018-11-01T20:03:38.973Z,100280.00
2018-11-01T20:06:07.290Z,100268.00
2018-11-01T20:08:35.708Z,100275.00
2018-11-01T20:11:04.790Z,100286.00
2018-11-01T20:13:33.180Z,100291.00
2018-11-01T20:16:01.510Z,100300.00
2018-11-01T20:18:29.853Z,100308.00
2018-11-01T20:20:58.180Z,100305.00
2018-11-01T20:23:26.456Z,100316.00
2018-11-01T20:25:54.774Z,100318.00
2018-11-01T20:28:23.175Z,100324.00
2018-11-01T20:30:51.536Z,100333.00
2018-11-01T20:33:19.826Z,100335.00
2018-11-01T20:35:48.246Z,100325.00
2018-11-01T20:38:16.663Z,100323.00
2018-11-01T20:40:45.048Z,100334.00
2018-11-01T20:43:13.571Z,100332.00
2018-11-01T20:45:41.957Z,100342.00
2018-11-01T20:48:10.314Z,100347.00
2018-11-01T20:50:38.677Z,100341.00
2018-11-01T20:53:06.984Z,100341.00
2018-11-01T20:55:35.267Z,100335.00
2018-11-01T20:58:03.645Z,100333.00
2018-11-01T21:00:31.962Z,100332.00
2018-11-01T21:03:00.651Z,100332.00
2018-11-01T21:05:29.061Z,100339.00
2018-11-01T21:07:57.476Z,100335.00
2018-11-01T21:10:25.840Z,100324.00
2018-11-01T21:12:54.220Z,100332.00
2018-11-01T21:15:23.674Z,100333.00
2018-11-01T21:17:51.982Z,100343.00
2018-11-01T21:20:20.322Z,100335.00
2018-11-01T21:22:48.638Z,100335.00
2018-11-01T21:25:16.838Z,100347.00
2018-11-01T21:27:45.113Z,100348.00
2018-11-01T21:30:13.407Z,100356.00
2018-11-01T21:32:41.699Z,100346.00
2018-11-01T21:35:10.048Z,100360.00
2018-11-01T21:37:38.299Z,100357.00
2018-11-01T21:40:08.300Z,100353.00
2018-11-01T21:42:36.801Z,100360.00
2018-11-01T21:45:07.274Z,100366.00
2018-11-01T21:47:35.849Z,100362.00
2018-11-01T21:50:04.424Z,100365.00
2018-11-01T21:52:33.057Z,100369.00
2018-11-01T21:55:01.382Z,100363.00
2018-11-01T21:57:29.630Z,100364.00
2018-11-01T21:59:57.989Z,100368.00
2018-11-01T22:02:26.273Z,100360.00
2018-11-01T22:04:54.693Z,100364.00
2018-11-01T22:07:23.049Z,100358.00
2018-11-01T22:09:51.417Z,100360.00
2018-11-01T22:12:19.576Z,100358.00
2018-11-01T22:14:47.866Z,100369.00
2018-11-01T22:17:16.097Z,100369.00
2018-11-01T22:19:44.311Z,100360.00
2018-11-01T22:22:12.554Z,100353.00
2018-11-01T22:24:40.748Z,100385.00
2018-11-01T22:27:09.028Z,100376.00
2018-11-01T22:29:37.204Z,100381.00
2018-11-01T22:32:05.839Z,100374.00
2018-11-01T22:34:34.220Z,100379.00
2018-11-01T22:37:02.444Z,100380.00
2018-11-01T22:39:30.628Z,100384.00
2018-11-01T22:41:59.070Z,100377.00
2018-11-01T22:44:27.333Z,100382.00
2018-11-01T22:46:55.573Z,100386.00
2018-11-01T22:49:23.840Z,100382.00
2018-11-01T22:51:52.797Z,100375.00
2018-11-01T22:54:20.927Z,100368.00
2018-11-01T22:56:49.316Z,100362.00
2018-11-01T22:59:17.497Z,100353.00
2018-11-01T23:01:45.749Z,100354.00
2018-11-01T23:04:13.962Z,100349.00
2018-11-01T23:06:42.245Z,100346.00
2018-11-01T23:09:10.596Z,100352.00
2018-11-01T23:11:39.456Z,100356.00
2018-11-01T23:14:07.920Z,100345.00
2018-11-01T23:16:36.543Z,100344.00
2018-11-01T23:19:05.389Z,100345.00
2018-11-01T23:21:33.625Z,100359.00
2018-11-01T23:24:01.916Z,100365.00
2018-11-01T23:26:30.185Z,100374.00
2018-11-01T23:28:58.867Z,100374.00
2018-11-01T23:31:27.068Z,100378.00
2018-11-01T23:33:55.207Z,100375.00
2018-11-01T23:36:22.846Z,100374.00
2018-11-01T23:38:58.360Z,100372.00
2018-11-01T23:41:35.646Z,100381.00
2018-11-01T23:44:13.602Z,100402.00
2018-11-01T23:46:48.315Z,100409.00
2018-11-01T23:49:21.328Z,100409.00
2018-11-01T23:51:55.603Z,100415.00
2018-11-01T23:54:23.807Z,100421.00
2018-11-01T23:56:52.056Z,100425.00
2018-11-01T23:59:20.696Z,100421.00
